createdAt,value
2024-02-16T00:02:04.910Z,90.75
2024-02-16T00:04:32.339Z,81.60
2024-02-16T00:06:59.518Z,87.85
2024-02-16T00:09:28.696Z,75.15
2024-02-16T00:11:56.361Z,77.93
2024-02-16T00:14:23.888Z,80.88
2024-02-16T00:16:50.821Z,79.53
2024-02-16T00:19:18.096Z,81.50
2024-02-16T00:21:45.208Z,63.50
2024-02-16T00:24:12.239Z,58.55
2024-02-16T00:26:41.169Z,65.30
2024-02-16T00:29:09.481Z,67.35
2024-02-16T00:31:36.467Z,68.13
2024-02-16T00:34:03.587Z,68.53
2024-02-16T00:36:32.049Z,67.88
2024-02-16T00:38:59.736Z,64.45
2024-02-16T00:41:27.392Z,55.65
2024-02-16T00:43:54.629Z,56.85
2024-02-16T00:46:24.298Z,49.00
2024-02-16T00:48:52.311Z,47.95
2024-02-16T00:51:19.524Z,47.58
2024-02-16T00:53:46.541Z,47.58
2024-02-16T00:56:13.601Z,69.97
2024-02-16T00:58:46.163Z,44.08
2024-02-16T01:01:13.810Z,44.17
2024-02-16T01:03:40.931Z,42.05
2024-02-16T01:06:10.438Z,47.03
2024-02-16T01:08:37.581Z,44.15
2024-02-16T01:11:04.893Z,42.15
2024-02-16T01:13:32.240Z,41.90
2024-02-16T01:15:59.340Z,42.08
2024-02-16T01:18:27.474Z,44.10
2024-02-16T01:20:54.526Z,39.50
2024-02-16T01:23:21.753Z,47.83
2024-02-16T01:25:49.514Z,43.85
2024-02-16T01:28:17.343Z,44.47
2024-02-16T01:30:44.583Z,50.22
2024-02-16T01:33:12.125Z,45.05
2024-02-16T01:35:39.844Z,49.47
2024-02-16T01:38:06.856Z,52.13
2024-02-16T01:40:33.877Z,48.35
2024-02-16T01:43:05.703Z,47.83
2024-02-16T01:45:32.942Z,53.92
2024-02-16T01:48:00.933Z,53.25
2024-02-16T01:50:30.828Z,56.67
2024-02-16T01:52:57.926Z,59.70
2024-02-16T01:55:24.871Z,55.42
2024-02-16T01:57:51.903Z,61.45
2024-02-16T02:00:19.589Z,60.20
2024-02-16T02:02:47.663Z,54.38
2024-02-16T02:05:16.896Z,44.33
2024-02-16T02:07:44.499Z,50.90
2024-02-16T02:10:14.095Z,40.90
2024-02-16T02:12:43.647Z,42.28
2024-02-16T02:15:13.136Z,39.85
2024-02-16T02:17:40.545Z,53.17
2024-02-16T02:20:12.554Z,49.88
2024-02-16T02:22:39.807Z,50.25
2024-02-16T02:25:09.267Z,58.03
2024-02-16T02:27:36.287Z,54.22
2024-02-16T02:30:03.576Z,48.00
2024-02-16T02:32:30.749Z,54.65
2024-02-16T02:34:57.847Z,52.15
2024-02-16T02:37:24.926Z,48.95
2024-02-16T02:39:52.034Z,47.72
2024-02-16T02:42:21.417Z,44.67
2024-02-16T02:44:51.480Z,43.42
2024-02-16T02:47:18.577Z,41.70
2024-02-16T02:49:45.843Z,38.65
2024-02-16T02:52:12.863Z,41.40
2024-02-16T02:54:39.971Z,40.63
2024-02-16T02:57:07.414Z,38.92
2024-02-16T02:59:34.364Z,35.13
2024-02-16T03:02:01.327Z,36.65
2024-02-16T03:04:28.346Z,33.22
2024-02-16T03:06:55.697Z,32.55
2024-02-16T03:09:24.120Z,32.40
2024-02-16T03:11:51.190Z,36.58
2024-02-16T03:14:18.686Z,36.40
2024-02-16T03:16:45.737Z,38.80
2024-02-16T03:19:12.863Z,33.95
2024-02-16T03:21:40.001Z,34.15
2024-02-16T03:24:09.557Z,31.48
2024-02-16T03:26:36.578Z,33.90
2024-02-16T03:29:04.349Z,34.95
2024-02-16T03:31:31.461Z,33.83
2024-02-16T03:33:59.060Z,29.73
2024-02-16T03:36:26.201Z,34.13
2024-02-16T03:38:53.414Z,33.03
2024-02-16T03:41:21.769Z,36.10
2024-02-16T03:43:48.871Z,31.38
2024-02-16T03:46:15.999Z,35.15
2024-02-16T03:48:43.225Z,33.08
2024-02-16T03:51:10.490Z,33.75
2024-02-16T03:53:37.551Z,31.55
2024-02-16T03:56:04.741Z,30.23
2024-02-16T03:58:32.402Z,36.00
2024-02-16T04:00:59.916Z,38.10
2024-02-16T04:03:27.053Z,32.75
2024-02-16T04:05:54.409Z,33.15
2024-02-16T04:08:21.559Z,35.25
2024-02-16T04:10:48.645Z,32.38
2024-02-16T04:13:15.788Z,32.08
2024-02-16T04:15:43.010Z,40.65
2024-02-16T04:18:10.707Z,34.53
2024-02-16T04:20:39.233Z,34.25
2024-02-16T04:23:06.391Z,29.95
2024-02-16T04:25:33.338Z,33.33
2024-02-16T04:28:00.370Z,30.42
2024-02-16T04:30:27.486Z,30.60
2024-02-16T04:32:54.625Z,32.70
2024-02-16T04:35:21.858Z,34.97
2024-02-16T04:37:48.935Z,33.80
2024-02-16T04:40:16.612Z,36.28
2024-02-16T04:42:43.612Z,37.10
2024-02-16T04:45:14.498Z,38.13
2024-02-16T04:47:41.573Z,35.28
2024-02-16T04:50:12.188Z,33.47
2024-02-16T04:52:42.433Z,38.38
2024-02-16T04:55:09.477Z,48.10
2024-02-16T04:57:36.724Z,56.53
2024-02-16T05:00:04.390Z,51.30
2024-02-16T05:02:31.452Z,44.67
2024-02-16T05:05:01.200Z,41.10
2024-02-16T05:07:30.262Z,39.45
2024-02-16T05:09:59.640Z,44.75
2024-02-16T05:12:28.040Z,44.78
2024-02-16T05:14:55.552Z,51.90
2024-02-16T05:17:23.929Z,41.45
2024-02-16T05:19:51.285Z,43.63
2024-02-16T05:22:23.892Z,44.63
2024-02-16T05:24:50.835Z,40.15
2024-02-16T05:27:17.928Z,39.90
2024-02-16T05:29:46.729Z,45.03
2024-02-16T05:32:14.110Z,39.85
2024-02-16T05:34:41.282Z,38.83
2024-02-16T05:37:08.518Z,38.17
2024-02-16T05:39:47.018Z,38.55
2024-02-16T05:42:14.049Z,37.70
2024-02-16T05:44:41.224Z,38.50
2024-02-16T05:47:09.095Z,39.35
2024-02-16T05:49:36.311Z,41.22
2024-02-16T05:52:19.075Z,43.83
2024-02-16T05:54:46.835Z,37.47
2024-02-16T05:57:14.223Z,40.10
2024-02-16T05:59:43.257Z,39.50
2024-02-16T06:02:12.332Z,36.25
2024-02-16T06:04:40.913Z,43.95
2024-02-16T06:07:08.322Z,44.60
2024-02-16T06:09:36.844Z,45.03
2024-02-16T06:12:04.928Z,38.33
2024-02-16T06:14:32.699Z,35.97
2024-02-16T06:17:01.607Z,41.00
2024-02-16T06:19:28.843Z,40.72
2024-02-16T06:21:56.514Z,41.15
2024-02-16T06:24:24.112Z,44.80
2024-02-16T06:26:56.829Z,46.40
2024-02-16T06:29:24.904Z,48.72
2024-02-16T06:31:52.159Z,50.97
2024-02-16T06:34:20.438Z,48.05
2024-02-16T06:36:47.731Z,51.20
2024-02-16T06:39:18.385Z,54.47
2024-02-16T06:41:46.615Z,45.15
2024-02-16T06:44:14.065Z,22.70
2024-02-16T06:46:41.285Z,26.55
2024-02-16T06:49:08.574Z,36.20
2024-02-16T06:51:35.866Z,33.63
2024-02-16T06:54:03.351Z,37.30
2024-02-16T06:56:30.917Z,75.40
2024-02-16T06:58:57.919Z,79.65
2024-02-16T07:01:24.894Z,57.70
2024-02-16T07:03:52.240Z,54.80
2024-02-16T07:06:19.429Z,64.63
2024-02-16T07:08:46.660Z,64.05
2024-02-16T07:11:14.285Z,44.85
2024-02-16T07:13:41.810Z,62.30
2024-02-16T07:16:08.840Z,62.20
2024-02-16T07:18:36.264Z,67.43
2024-02-16T07:21:03.935Z,72.22
2024-02-16T07:23:31.008Z,70.40
2024-02-16T07:25:59.232Z,77.97
2024-02-16T07:28:27.529Z,91.13
2024-02-16T07:30:54.857Z,92.93
2024-02-16T07:33:22.228Z,93.22
2024-02-16T07:35:49.462Z,99.80
2024-02-16T07:38:16.516Z,109.22
2024-02-16T07:40:43.728Z,91.28
2024-02-16T07:43:11.867Z,88.10
2024-02-16T07:45:39.039Z,83.07
2024-02-16T07:48:08.034Z,87.35
2024-02-16T07:50:35.161Z,80.72
2024-02-16T07:53:02.397Z,86.78
2024-02-16T07:55:29.372Z,86.03
2024-02-16T07:57:58.001Z,71.30
2024-02-16T08:00:24.999Z,70.57
2024-02-16T08:02:52.127Z,65.75
2024-02-16T08:05:20.823Z,67.57
2024-02-16T08:07:49.402Z,66.05
2024-02-16T08:10:16.533Z,89.18
2024-02-16T08:12:43.685Z,76.30
2024-02-16T08:15:11.731Z,106.70
2024-02-16T08:17:38.881Z,192.30
2024-02-16T08:20:08.974Z,65.43
2024-02-16T08:22:37.575Z,56.85
2024-02-16T08:25:08.824Z,70.40
2024-02-16T08:27:36.429Z,177.38
2024-02-16T08:30:06.067Z,103.78
2024-02-16T08:32:35.543Z,112.05
2024-02-16T08:35:05.241Z,74.97
2024-02-16T08:37:32.598Z,83.63
2024-02-16T08:39:59.684Z,50.10
2024-02-16T08:42:26.704Z,56.72
2024-02-16T08:44:53.869Z,46.80
2024-02-16T08:47:20.997Z,49.15
2024-02-16T08:49:48.079Z,96.20
2024-02-16T08:52:15.507Z,179.45
2024-02-16T08:54:43.925Z,52.17
2024-02-16T08:57:11.553Z,53.40
2024-02-16T08:59:38.800Z,80.15
2024-02-16T09:02:05.780Z,63.85
2024-02-16T09:04:32.856Z,57.00
2024-02-16T09:07:00.736Z,73.60
2024-02-16T09:09:27.934Z,103.43
2024-02-16T09:11:55.293Z,58.42
2024-02-16T09:14:23.657Z,91.60
2024-02-16T09:16:54.015Z,65.63
2024-02-16T09:19:22.667Z,40.83
2024-02-16T09:21:51.685Z,40.53
2024-02-16T09:24:19.568Z,37.00
2024-02-16T09:26:49.811Z,33.22
2024-02-16T09:29:16.979Z,39.50
2024-02-16T09:31:44.005Z,45.53
2024-02-16T09:34:11.102Z,30.70
2024-02-16T09:36:39.288Z,34.03
2024-02-16T09:39:07.337Z,28.48
2024-02-16T09:41:36.401Z,46.22
2024-02-16T09:44:04.229Z,45.13
2024-02-16T09:46:32.804Z,30.48
2024-02-16T09:49:04.384Z,32.78
2024-02-16T09:51:31.900Z,29.80
2024-02-16T09:53:59.987Z,30.30
2024-02-16T09:56:27.247Z,31.65
2024-02-16T09:58:56.203Z,35.95
2024-02-16T10:01:24.466Z,31.70
2024-02-16T10:03:51.560Z,28.25
2024-02-16T10:06:19.020Z,32.03
2024-02-16T10:08:51.883Z,31.20
2024-02-16T10:11:22.762Z,50.60
2024-02-16T10:13:59.744Z,172.27
2024-02-16T10:16:29.166Z,42.20
2024-02-16T10:19:06.560Z,31.02
2024-02-16T10:21:37.824Z,29.85
2024-02-16T10:24:09.781Z,70.63
2024-02-16T10:26:40.692Z,24.77
2024-02-16T10:29:09.996Z,37.95
2024-02-16T10:31:37.651Z,25.23
2024-02-16T10:34:11.430Z,32.10
2024-02-16T10:36:39.413Z,27.98
2024-02-16T10:39:07.446Z,25.63
2024-02-16T10:41:39.272Z,30.02
2024-02-16T10:44:07.193Z,21.80
2024-02-16T10:46:37.512Z,39.78
2024-02-16T10:49:09.487Z,17.45
2024-02-16T10:51:56.858Z,51.28
2024-02-16T10:54:26.698Z,22.48
2024-02-16T10:56:55.069Z,26.95
2024-02-16T10:59:22.089Z,24.33
2024-02-16T11:01:49.157Z,17.17
2024-02-16T11:04:18.339Z,19.08
2024-02-16T11:06:57.884Z,25.95
2024-02-16T11:09:31.631Z,36.65
2024-02-16T11:12:02.710Z,23.13
2024-02-16T11:14:38.600Z,29.45
2024-02-16T11:17:10.271Z,16.45
2024-02-16T11:19:39.792Z,16.65
2024-02-16T11:22:10.339Z,14.75
2024-02-16T11:24:37.827Z,19.33
2024-02-16T11:27:05.457Z,19.80
2024-02-16T11:29:35.236Z,19.35
2024-02-16T11:32:05.940Z,20.05
2024-02-16T11:34:33.709Z,16.83
2024-02-16T11:37:03.792Z,10.20
2024-02-16T11:39:36.449Z,18.80
2024-02-16T11:42:04.856Z,15.52
2024-02-16T11:44:33.233Z,13.38
2024-02-16T11:47:00.931Z,10.60
2024-02-16T11:49:29.724Z,11.27
2024-02-16T11:51:57.483Z,10.38
2024-02-16T11:54:25.622Z,15.25
2024-02-16T11:56:53.452Z,11.55
2024-02-16T11:59:20.847Z,10.57
2024-02-16T12:01:58.839Z,10.60
2024-02-16T12:04:27.030Z,10.82
2024-02-16T12:06:58.169Z,12.07
2024-02-16T12:09:26.462Z,15.00
2024-02-16T12:11:54.206Z,11.13
2024-02-16T12:14:22.870Z,10.35
2024-02-16T12:16:50.822Z,9.68
2024-02-16T12:19:18.527Z,11.40
2024-02-16T12:21:45.772Z,19.77
2024-02-16T12:24:12.923Z,11.48
2024-02-16T12:26:40.990Z,11.95
2024-02-16T12:29:08.107Z,13.20
2024-02-16T12:31:38.963Z,12.63
2024-02-16T12:34:08.194Z,19.80
2024-02-16T12:36:35.986Z,18.75
2024-02-16T12:39:04.966Z,12.85
2024-02-16T12:41:32.342Z,14.13
2024-02-16T12:43:59.763Z,10.57
2024-02-16T12:46:26.804Z,12.38
2024-02-16T12:48:55.096Z,10.98
2024-02-16T12:51:22.304Z,23.63
2024-02-16T12:53:49.412Z,15.90
2024-02-16T12:56:16.594Z,14.05
2024-02-16T12:58:43.600Z,23.52
2024-02-16T13:01:19.624Z,35.88
2024-02-16T13:03:51.763Z,28.15
2024-02-16T13:06:18.961Z,24.20
2024-02-16T13:08:47.179Z,40.42
2024-02-16T13:11:14.266Z,18.20
2024-02-16T13:13:41.398Z,29.13
2024-02-16T13:16:08.425Z,21.48
2024-02-16T13:18:35.545Z,19.67
2024-02-16T13:21:02.589Z,32.17
2024-02-16T13:23:30.309Z,96.13
2024-02-16T13:25:57.287Z,23.42
2024-02-16T13:28:25.792Z,23.83
2024-02-16T13:30:52.862Z,19.73
2024-02-16T13:33:22.502Z,23.27
2024-02-16T13:35:52.051Z,19.83
2024-02-16T13:38:19.540Z,16.83
2024-02-16T13:40:46.634Z,20.45
2024-02-16T13:43:13.660Z,23.45
2024-02-16T13:45:49.890Z,35.53
2024-02-16T13:48:17.109Z,34.22
2024-02-16T13:50:50.508Z,25.75
2024-02-16T13:53:21.301Z,39.03
2024-02-16T13:55:49.731Z,60.38
2024-02-16T13:58:16.924Z,24.70
2024-02-16T14:00:44.166Z,32.25
2024-02-16T14:03:13.184Z,40.45
2024-02-16T14:05:40.657Z,28.08
2024-02-16T14:08:09.825Z,26.70
2024-02-16T14:10:37.200Z,35.63
2024-02-16T14:13:07.905Z,31.83
2024-02-16T14:15:35.035Z,53.73
2024-02-16T14:18:08.312Z,68.63
2024-02-16T14:20:41.085Z,30.25
2024-02-16T14:23:09.567Z,34.13
2024-02-16T14:25:39.203Z,35.60
2024-02-16T14:28:06.923Z,46.38
2024-02-16T14:30:34.891Z,41.85
2024-02-16T14:33:02.515Z,47.58
2024-02-16T14:35:30.901Z,35.45
2024-02-16T14:37:57.971Z,75.43
2024-02-16T14:40:24.981Z,45.90
2024-02-16T14:42:52.401Z,33.92
2024-02-16T14:45:22.685Z,34.72
2024-02-16T14:47:50.188Z,33.73
2024-02-16T14:50:18.025Z,35.50
2024-02-16T14:52:46.804Z,44.15
2024-02-16T14:55:15.460Z,30.10
2024-02-16T14:57:43.284Z,25.90
2024-02-16T15:00:12.460Z,52.05
2024-02-16T15:02:40.484Z,57.50
2024-02-16T15:05:08.090Z,58.47
2024-02-16T15:07:36.184Z,74.18
2024-02-16T15:10:04.502Z,55.20
2024-02-16T15:12:33.158Z,44.90
2024-02-16T15:15:03.053Z,37.78
2024-02-16T15:17:30.156Z,35.78
2024-02-16T15:19:57.376Z,37.78
2024-02-16T15:22:26.721Z,50.42
2024-02-16T15:24:56.086Z,41.35
2024-02-16T15:27:23.112Z,46.55
2024-02-16T15:29:51.163Z,44.65
2024-02-16T15:32:18.360Z,148.70
2024-02-16T15:34:49.390Z,82.50
2024-02-16T15:37:16.514Z,50.20
2024-02-16T15:39:43.550Z,47.38
2024-02-16T15:42:13.276Z,37.75
2024-02-16T15:44:40.413Z,33.97
2024-02-16T15:47:07.421Z,38.05
2024-02-16T15:49:34.519Z,38.65
2024-02-16T15:52:02.369Z,37.83
2024-02-16T15:54:29.385Z,34.58
2024-02-16T15:56:58.203Z,35.45
2024-02-16T15:59:26.773Z,41.00
2024-02-16T16:01:53.780Z,36.53
2024-02-16T16:04:20.896Z,38.25
2024-02-16T16:06:48.200Z,50.55
2024-02-16T16:09:15.371Z,52.50
2024-02-16T16:11:44.730Z,54.40
2024-02-16T16:14:11.971Z,46.38
2024-02-16T16:16:38.957Z,64.43
2024-02-16T16:19:06.190Z,126.07
2024-02-16T16:21:33.296Z,127.47
2024-02-16T16:24:00.324Z,114.45
2024-02-16T16:26:28.440Z,188.63
2024-02-16T16:28:55.399Z,174.50
2024-02-16T16:31:22.447Z,205.93
2024-02-16T16:33:50.525Z,150.52
2024-02-16T16:36:17.802Z,138.23
2024-02-16T16:38:45.147Z,129.68
2024-02-16T16:41:12.178Z,137.82
2024-02-16T16:43:40.450Z,120.95
2024-02-16T16:46:09.153Z,110.25
2024-02-16T16:48:36.748Z,96.03
2024-02-16T16:51:04.209Z,107.85
2024-02-16T16:53:31.211Z,73.65
2024-02-16T16:55:58.199Z,70.03
2024-02-16T16:58:25.179Z,69.78
2024-02-16T17:00:52.392Z,71.38
2024-02-16T17:03:19.555Z,128.48
2024-02-16T17:05:47.166Z,128.82
2024-02-16T17:08:14.187Z,154.70
2024-02-16T17:10:41.309Z,141.10
2024-02-16T17:13:08.552Z,122.90
2024-02-16T17:15:35.625Z,103.60
2024-02-16T17:18:03.366Z,105.85
2024-02-16T17:20:30.701Z,114.93
2024-02-16T17:22:58.726Z,118.50
2024-02-16T17:25:25.880Z,117.03
2024-02-16T17:27:53.053Z,117.25
2024-02-16T17:30:21.449Z,131.43
2024-02-16T17:32:50.308Z,116.03
2024-02-16T17:35:18.129Z,115.53
2024-02-16T17:37:45.712Z,115.90
2024-02-16T17:40:13.242Z,123.43
2024-02-16T17:42:40.403Z,125.57
2024-02-16T17:45:08.219Z,123.65
2024-02-16T17:47:36.081Z,117.47
2024-02-16T17:50:04.071Z,116.30
2024-02-16T17:52:31.365Z,119.82
2024-02-16T17:55:03.571Z,118.35
2024-02-16T17:57:32.694Z,124.25
2024-02-16T18:00:00.570Z,153.63
2024-02-16T18:02:38.930Z,112.60
2024-02-16T18:05:08.539Z,114.80
2024-02-16T18:07:36.942Z,116.05
2024-02-16T18:10:07.297Z,121.25
2024-02-16T18:12:35.463Z,127.72
2024-02-16T18:15:02.591Z,133.15
2024-02-16T18:17:29.687Z,131.88
2024-02-16T18:19:58.011Z,149.55
2024-02-16T18:22:25.917Z,141.45
2024-02-16T18:24:52.939Z,184.32
2024-02-16T18:27:20.036Z,140.55
2024-02-16T18:29:46.992Z,139.38
2024-02-16T18:32:14.099Z,143.15
2024-02-16T18:34:41.391Z,144.57
2024-02-16T18:37:08.460Z,137.43
2024-02-16T18:39:35.573Z,129.88
2024-02-16T18:42:02.792Z,135.73
2024-02-16T18:44:29.774Z,136.52
2024-02-16T18:46:56.930Z,133.68
2024-02-16T18:49:25.375Z,143.98
2024-02-16T18:51:52.512Z,153.45
2024-02-16T18:54:19.543Z,144.40
2024-02-16T18:56:46.628Z,136.88
2024-02-16T18:59:14.663Z,147.05
2024-02-16T19:01:41.814Z,139.20
2024-02-16T19:04:09.446Z,121.53
2024-02-16T19:06:36.584Z,113.32
2024-02-16T19:09:04.986Z,109.47
2024-02-16T19:11:32.395Z,109.25
2024-02-16T19:13:59.627Z,99.10
2024-02-16T19:16:26.722Z,96.22
2024-02-16T19:18:53.780Z,95.05
2024-02-16T19:21:21.478Z,86.93
2024-02-16T19:23:48.626Z,96.63
2024-02-16T19:26:15.700Z,95.45
2024-02-16T19:28:43.683Z,99.05
2024-02-16T19:31:11.353Z,103.72
2024-02-16T19:33:39.017Z,108.72
2024-02-16T19:36:09.345Z,110.78
2024-02-16T19:38:37.987Z,106.18
2024-02-16T19:41:06.508Z,110.30
2024-02-16T19:43:33.502Z,101.00
2024-02-16T19:46:03.666Z,95.05
2024-02-16T19:48:31.327Z,94.10
2024-02-16T19:50:58.377Z,94.20
2024-02-16T19:53:25.395Z,86.55
2024-02-16T19:55:52.395Z,83.35
2024-02-16T19:58:21.583Z,87.88
2024-02-16T20:00:52.146Z,88.60
2024-02-16T20:03:20.493Z,79.83
2024-02-16T20:05:48.077Z,81.75
2024-02-16T20:08:15.169Z,82.63
2024-02-16T20:10:42.272Z,95.43
2024-02-16T20:13:10.012Z,109.68
2024-02-16T20:15:37.166Z,104.88
2024-02-16T20:18:06.087Z,111.88
2024-02-16T20:20:33.387Z,116.30
2024-02-16T20:23:00.432Z,126.45
2024-02-16T20:25:27.446Z,138.18
2024-02-16T20:27:58.008Z,125.30
2024-02-16T20:30:26.596Z,113.83
2024-02-16T20:32:55.740Z,108.13
2024-02-16T20:35:23.240Z,100.30
2024-02-16T20:37:51.362Z,96.05
2024-02-16T20:40:19.537Z,104.68
2024-02-16T20:42:47.364Z,104.55
2024-02-16T20:45:17.369Z,95.38
2024-02-16T20:47:44.504Z,91.05
2024-02-16T20:50:11.687Z,87.82
2024-02-16T20:52:43.822Z,91.63
2024-02-16T20:55:13.481Z,98.05
2024-02-16T20:57:40.559Z,95.30
2024-02-16T21:00:13.852Z,95.88
2024-02-16T21:02:41.126Z,84.35
2024-02-16T21:05:08.633Z,98.53
2024-02-16T21:07:36.108Z,88.00
2024-02-16T21:10:07.286Z,87.35
2024-02-16T21:12:34.367Z,93.43
2024-02-16T21:15:01.891Z,94.32
2024-02-16T21:17:29.154Z,97.50
2024-02-16T21:19:56.234Z,96.25
2024-02-16T21:22:23.308Z,112.43
2024-02-16T21:24:50.291Z,125.18
2024-02-16T21:27:17.357Z,133.65
2024-02-16T21:29:44.738Z,143.95
2024-02-16T21:32:11.720Z,140.57
2024-02-16T21:34:38.870Z,149.45
2024-02-16T21:37:06.247Z,122.28
2024-02-16T21:39:33.289Z,112.28
2024-02-16T21:42:00.747Z,99.82
2024-02-16T21:44:27.851Z,106.38
2024-02-16T21:46:54.860Z,106.63
2024-02-16T21:49:22.910Z,108.47
2024-02-16T21:51:50.166Z,107.80
2024-02-16T21:54:17.383Z,100.68
2024-02-16T21:56:44.374Z,97.53
2024-02-16T21:59:11.338Z,98.43
2024-02-16T22:01:38.389Z,101.47
2024-02-16T22:04:05.539Z,96.60
2024-02-16T22:06:33.317Z,90.47
2024-02-16T22:09:00.575Z,79.38
2024-02-16T22:11:27.915Z,76.68
2024-02-16T22:13:55.833Z,66.25
2024-02-16T22:16:23.139Z,66.85
2024-02-16T22:18:54.359Z,73.82
2024-02-16T22:21:27.307Z,72.60
2024-02-16T22:24:01.171Z,78.07
2024-02-16T22:26:30.784Z,70.10
2024-02-16T22:28:58.027Z,72.28
2024-02-16T22:31:29.491Z,64.05
2024-02-16T22:34:00.740Z,60.30
2024-02-16T22:36:30.187Z,58.85
2024-02-16T22:38:57.675Z,50.10
2024-02-16T22:41:24.730Z,52.53
2024-02-16T22:43:51.726Z,52.25
2024-02-16T22:46:18.696Z,48.80
2024-02-16T22:48:45.813Z,53.17
2024-02-16T22:51:12.941Z,58.50
2024-02-16T22:53:39.942Z,66.25
2024-02-16T22:56:07.151Z,77.45
2024-02-16T22:58:34.097Z,65.97
2024-02-16T23:01:01.202Z,70.40
2024-02-16T23:03:28.354Z,60.50
2024-02-16T23:06:00.359Z,56.33
2024-02-16T23:08:31.301Z,55.45
2024-02-16T23:10:58.909Z,57.50
2024-02-16T23:13:26.866Z,64.32
2024-02-16T23:15:54.055Z,64.20
2024-02-16T23:18:21.754Z,63.47
2024-02-16T23:20:49.110Z,55.42
2024-02-16T23:23:16.528Z,64.13
2024-02-16T23:25:44.514Z,48.58
2024-02-16T23:28:14.043Z,45.08
2024-02-16T23:30:41.775Z,42.90
2024-02-16T23:33:10.392Z,46.08
2024-02-16T23:35:37.920Z,44.25
2024-02-16T23:38:05.135Z,45.40
2024-02-16T23:40:32.431Z,50.42
2024-02-16T23:42:59.424Z,50.40
2024-02-16T23:45:26.600Z,51.60
2024-02-16T23:47:53.886Z,52.70
2024-02-16T23:50:20.969Z,57.97
2024-02-16T23:52:48.038Z,51.70
2024-02-16T23:55:15.008Z,65.35
2024-02-16T23:57:42.074Z,74.40
